KOSH/OSH METAR and TAF weather

Enter ICAO airport designator
Station Type Date Time Source
KOSH METAR 2022/08/16 18:53 UTC NOAA

KOSH 161853Z 01008KT 10SM CLR 26/13 A3017 RMK AO2 SLP206 T02560133


Station Type Date Time Source
KOSH Decoded METAR 2022/08/16 18:53 UTC NOAA

WITTMAN REGIONAL AIRPORT, WI, United States (KOSH) 43-58N 88-33W 248M
Aug 16, 2022 - 02:53 PM EDT / 2022.08.16 1853 UTC
Wind: from the N (010 degrees) at 9 MPH (8 KT):0
Visibility: 10 mile(s):0
Sky conditions: clear
Temperature: 78.1 F (25.6 C)
Dew Point: 55.9 F (13.3 C)
Relative Humidity: 46%
Pressure (altimeter): 30.17 in. Hg (1021 hPa)
ob: KOSH 161853Z 01008KT 10SM CLR 26/13 A3017 RMK AO2 SLP206 T02560133
cycle: 19

Station Type Date Time Source
KOSH TAF 2022/08/04 18:33 UTC NOAA

TAF KOSH 041731Z 0418/0518 05008KT P6SM SCT045
FM050100 08004KT P6SM SKC
FM051600 11005KT P6SM FEW045

Example: see airport list